Aviation Digital Data Service (ADDS)

Output produced by TAFs form (0751 UTC 23 April 2018)
found at http://aviationweather.gov/adds/tafs/
 
METAR text: ROIG 230700Z 15008KT 120V180 9999 FEW008 SCT016 BKN050 27/24 Q1010
Conditions at: ROIG (ISHIGAKIJIMA ISL, JP) observed 0700 UTC 23 April 2018
Temperature: 27.0°C (81°F)
Dewpoint: 24.0°C (75°F) [RH = 84%]
Pressure (altimeter): 29.82 inches Hg (1010.0 mb)
Winds: from the SSE (150 degrees) at 9 MPH (8 knots; 4.2 m/s)
Visibility: 6 or more miles (10+ km)
Ceiling: 5000 feet AGL
Clouds: few clouds at 800 feet AGL
scattered clouds at 1600 feet AGL
broken clouds at 5000 feet AGL
Weather: no significant weather observed at this time

Forecast for: ROIG (ISHIGAKIJIMA ISL, JP)
Text: TAF ROIG 230507Z 2306/2412 17006KT 9999 FEW008 BKN015
Forecast period: 0600 UTC 23 April 2018 to 1200 UTC 24 April 2018
Forecast type: FROM: standard forecast or significant change
Winds: from the S (170 degrees) at 7 MPH (6 knots; 3.1 m/s)
Visibility: 6 or more miles (10+ km)
Ceiling: 1500 feet AGL
Clouds: few clouds at 800 feet AGL
broken clouds at 1500 feet AGL
Weather: no significant weather forecast for this period
Forecast for: ROIG (ISHIGAKIJIMA ISL, JP)
Text: TAF ROIG 230507Z 2306/2412 17006KT 9999 FEW008 BKN015
Forecast period: 0600 UTC 23 April 2018 to 1200 UTC 24 April 2018
Forecast type: FROM: standard forecast or significant change
Winds: from the S (170 degrees) at 7 MPH (6 knots; 3.1 m/s)
Visibility: 6 or more miles (10+ km)
Ceiling: 1500 feet AGL
Clouds: few clouds at 800 feet AGL
broken clouds at 1500 feet AGL
Weather: no significant weather forecast for this period
Forecast for: ROIG (ISHIGAKIJIMA ISL, JP)
Text: TAF ROIG 230507Z 2306/2412 17006KT 9999 FEW008 BKN015
Forecast period: 1200 UTC 23 April 2018 to 0000 UTC 24 April 2018
Forecast type: TEMPORARY: The following changes expected for less than half the time period
Ceiling: 800 feet AGL
Clouds: few clouds at 500 feet AGL
broken clouds at 800 feet AGL
Weather: no significant weather forecast for this period
Forecast for: ROIG (ISHIGAKIJIMA ISL, JP)
Text: TAF ROIG 230507Z 2306/2412 17006KT 9999 FEW008 BKN015
Forecast period: 1200 UTC 23 April 2018 to 0000 UTC 24 April 2018
Forecast type: TEMPORARY: The following changes expected for less than half the time period
Ceiling: 800 feet AGL
Clouds: few clouds at 500 feet AGL
broken clouds at 800 feet AGL
Weather: no significant weather forecast for this period
Forecast for: ROIG (ISHIGAKIJIMA ISL, JP)
Text: TAF ROIG 230507Z 2306/2412 17006KT 9999 FEW008 BKN015
Forecast period: 0900 to 1200 UTC 24 April 2018
Forecast type: TEMPORARY: The following changes expected for less than half the time period
Visibility: 2.49 miles (4.01 km)
Ceiling: 1000 feet AGL
Clouds: few clouds at 600 feet AGL
broken clouds at 1000 feet AGL
few clouds at 1500 feet AGL
Weather: SHRA  (rain showers)
Forecast for: ROIG (ISHIGAKIJIMA ISL, JP)
Text: TAF ROIG 230507Z 2306/2412 17006KT 9999 FEW008 BKN015
Forecast period: 0900 to 1200 UTC 24 April 2018
Forecast type: TEMPORARY: The following changes expected for less than half the time period
Visibility: 2.49 miles (4.01 km)
Ceiling: 1000 feet AGL
Clouds: few clouds at 600 feet AGL
broken clouds at 1000 feet AGL
few clouds at 1500 feet AGL
Weather: SHRA  (rain showers)